Time;durP1;ratioP1;P1;durP2;ratioP2;P2;SDS_P1;SDS_P2;PMS_P1;PMS_P2;Temp;Humidity;BMP_temperature;BMP_pressure;BME280_temperature;BME280_humidity;BME280_pressure;Samples;Min_cycle;Max_cycle;Signal;HPM_P1;HPM_P2
2022/01/28 00:02:25;;;;;;;11.85;1.80;;;;;;;;;;5032184;28;20063;-69
2022/01/28 00:04:53;;;;;;;9.07;1.90;;;;;;;;;;5033467;28;20084;-69
2022/01/28 00:07:18;;;;;;;6.63;1.48;;;;;;;;;;5032445;28;20467;-68
2022/01/28 00:09:44;;;;;;;7.70;1.70;;;;;;;;;;5021370;28;20037;-68
2022/01/28 00:12:10;;;;;;;7.65;1.70;;;;;;;;;;5023725;28;20034;-67
2022/01/28 00:38:55;;;;;;;12.50;1.90;;;;;;;;;;5025772;28;20041;-68
2022/01/28 00:41:21;;;;;;;6.10;1.55;;;;;;;;;;5022700;28;20041;-67
2022/01/28 00:43:47;;;;;;;13.10;1.80;;;;;;;;;;5029620;28;20030;-71
2022/01/28 00:46:12;;;;;;;8.30;1.63;;;;;;;;;;5046261;28;20033;-68
2022/01/28 00:48:38;;;;;;;9.32;1.70;;;;;;;;;;5031125;28;20060;-68
2022/01/28 00:51:04;;;;;;;7.10;1.10;;;;;;;;;;5025852;28;20427;-68
2022/01/28 00:53:30;;;;;;;8.20;1.73;;;;;;;;;;5047581;28;20057;-68
2022/01/28 00:55:57;;;;;;;10.02;2.22;;;;;;;;;;5041402;28;20044;-68
2022/01/28 00:58:23;;;;;;;8.68;1.63;;;;;;;;;;5027843;28;20075;-68
2022/01/28 01:00:49;;;;;;;9.25;1.67;;;;;;;;;;5033006;28;20037;-71
2022/01/28 01:03:15;;;;;;;6.53;1.70;;;;;;;;;;5029512;28;20037;-67
2022/01/28 01:05:40;;;;;;;12.05;1.98;;;;;;;;;;5046024;28;20174;-67
2022/01/28 01:08:06;;;;;;;8.13;1.95;;;;;;;;;;5028067;28;20164;-68
2022/01/28 01:10:35;;;;;;;10.13;2.53;;;;;;;;;;5025707;28;20395;-68
2022/01/28 01:13:00;;;;;;;12.27;1.80;;;;;;;;;;5017956;28;20048;-68
2022/01/28 01:15:32;;;;;;;13.18;2.00;;;;;;;;;;5031826;28;20037;-68
2022/01/28 01:18:08;;;;;;;;;;;;;;;;;;5033358;28;20067;-68
2022/01/28 01:20:51;;;;;;;9.82;1.75;;;;;;;;;;5032126;28;19952;-68
2022/01/28 01:23:26;;;;;;;8.25;1.63;;;;;;;;;;5019010;28;20034;-67
2022/01/28 01:26:11;;;;;;;13.43;1.67;;;;;;;;;;5021409;28;20059;-71
2022/01/28 01:28:40;;;;;;;6.45;1.52;;;;;;;;;;5013643;28;20110;-67
2022/01/28 01:31:12;;;;;;;11.40;1.77;;;;;;;;;;5029488;28;20088;-68
2022/01/28 01:33:43;;;;;;;12.20;2.00;;;;;;;;;;5029321;28;20494;-67
2022/01/28 01:36:09;;;;;;;11.48;1.90;;;;;;;;;;5028865;28;20037;-68
2022/01/28 01:38:37;;;;;;;12.82;2.63;;;;;;;;;;5031674;28;20076;-68
2022/01/28 01:41:06;;;;;;;8.35;1.67;;;;;;;;;;5014619;28;20030;-68
2022/01/28 01:43:47;;;;;;;10.05;1.90;;;;;;;;;;5025008;28;20112;-68
2022/01/28 01:46:32;;;;;;;5.07;1.33;;;;;;;;;;5012108;28;20025;-68
2022/01/28 01:54:26;;;;;;;11.45;2.33;;;;;;;;;;5034696;28;20075;-67
2022/01/28 01:56:53;;;;;;;8.70;2.00;;;;;;;;;;5028989;28;20029;-71
2022/01/28 01:59:19;;;;;;;13.15;2.50;;;;;;;;;;5028794;28;20041;-68
2022/01/28 02:01:44;;;;;;;13.60;2.30;;;;;;;;;;5026308;28;20029;-68
2022/01/28 02:04:10;;;;;;;10.00;1.83;;;;;;;;;;5030125;28;20380;-67
2022/01/28 02:06:36;;;;;;;14.70;2.00;;;;;;;;;;5029903;28;20033;-68
2022/01/28 02:09:01;;;;;;;12.50;1.90;;;;;;;;;;5014812;28;20030;-68
2022/01/28 02:11:27;;;;;;;15.75;2.13;;;;;;;;;;5027973;28;20038;-68
2022/01/28 02:13:53;;;;;;;10.93;1.65;;;;;;;;;;5028845;28;20404;-72
2022/01/28 02:16:19;;;;;;;13.00;2.10;;;;;;;;;;5029797;28;20368;-69
2022/01/28 02:18:45;;;;;;;13.52;2.13;;;;;;;;;;5037558;28;20029;-69
2022/01/28 02:21:14;;;;;;;18.20;2.45;;;;;;;;;;5025547;28;20390;-69
2022/01/28 02:23:41;;;;;;;9.57;1.80;;;;;;;;;;5020087;28;20060;-69
2022/01/28 02:26:11;;;;;;;8.32;1.70;;;;;;;;;;5021250;28;20187;-69
2022/01/28 02:28:38;;;;;;;14.23;2.03;;;;;;;;;;5040373;28;20045;-69
2022/01/28 02:31:07;;;;;;;16.20;3.28;;;;;;;;;;5015170;28;20037;-68
2022/01/28 02:33:32;;;;;;;11.18;1.92;;;;;;;;;;5017363;28;20117;-68
2022/01/28 02:36:03;;;;;;;15.48;2.40;;;;;;;;;;5029087;28;20499;-69
2022/01/28 02:38:29;;;;;;;10.32;1.75;;;;;;;;;;5027948;28;20060;-70
2022/01/28 02:40:57;;;;;;;15.73;2.25;;;;;;;;;;5026552;28;20065;-71
2022/01/28 02:45:52;;;;;;;12.95;2.10;;;;;;;;;;5030637;28;20061;-69
2022/01/28 02:48:27;;;;;;;18.90;2.05;;;;;;;;;;5024854;28;20038;-69
2022/01/28 02:53:38;;;;;;;17.88;2.85;;;;;;;;;;5026131;28;20030;-69
2022/01/28 02:56:12;;;;;;;15.93;2.38;;;;;;;;;;5016064;28;20026;-69
2022/01/28 02:58:38;;;;;;;14.15;2.42;;;;;;;;;;5028878;28;20048;-68
2022/01/28 03:01:04;;;;;;;15.57;2.58;;;;;;;;;;5028945;28;20471;-69
2022/01/28 03:03:30;;;;;;;10.57;1.80;;;;;;;;;;5028437;28;20117;-69
2022/01/28 03:05:55;;;;;;;12.10;1.88;;;;;;;;;;5025537;28;20079;-70
2022/01/28 03:08:28;;;;;;;13.35;1.73;;;;;;;;;;5019873;28;20060;-69
2022/01/28 03:16:32;;;;;;;9.80;1.55;;;;;;;;;;5028426;28;20053;-68
2022/01/28 03:19:01;;;;;;;9.55;2.10;;;;;;;;;;5011740;28;20164;-70
2022/01/28 03:23:57;;;;;;;10.50;1.52;;;;;;;;;;5011828;28;20034;-70
2022/01/28 03:26:27;;;;;;;12.10;2.05;;;;;;;;;;5018536;28;20121;-68
2022/01/28 03:28:53;;;;;;;14.00;2.27;;;;;;;;;;5018826;28;20468;-69
2022/01/28 03:31:19;;;;;;;13.95;2.53;;;;;;;;;;5029541;28;20032;-70
2022/01/28 03:33:44;;;;;;;22.55;2.78;;;;;;;;;;5016565;28;20078;-69
2022/01/28 03:36:11;;;;;;;11.38;2.17;;;;;;;;;;5029588;28;20373;-69
2022/01/28 03:38:38;;;;;;;11.80;1.80;;;;;;;;;;5030308;28;20122;-68
2022/01/28 03:41:05;;;;;;;17.63;2.15;;;;;;;;;;5028689;28;20041;-70
2022/01/28 03:43:31;;;;;;;19.25;2.17;;;;;;;;;;5026257;28;20057;-70
2022/01/28 03:45:56;;;;;;;11.43;1.80;;;;;;;;;;5014840;28;20120;-68
2022/01/28 03:48:21;;;;;;;14.88;2.03;;;;;;;;;;5024508;28;20093;-70
2022/01/28 03:50:47;;;;;;;6.63;1.98;;;;;;;;;;5033617;28;20061;-68
2022/01/28 03:53:12;;;;;;;15.65;2.20;;;;;;;;;;5019894;28;20037;-70
2022/01/28 03:55:38;;;;;;;11.45;1.85;;;;;;;;;;5015598;28;20030;-70
2022/01/28 03:58:03;;;;;;;11.25;1.85;;;;;;;;;;5013469;28;20038;-70
2022/01/28 04:00:31;;;;;;;8.27;1.88;;;;;;;;;;5023851;28;20043;-71
2022/01/28 04:03:47;;;;;;;10.27;1.75;;;;;;;;;;5039407;28;20033;-70
2022/01/28 04:13:48;;;;;;;10.80;1.60;;;;;;;;;;5029051;28;20044;-71
2022/01/28 04:18:45;;;;;;;18.45;2.30;;;;;;;;;;5020365;28;20464;-72
2022/01/28 04:21:10;;;;;;;20.83;2.95;;;;;;;;;;5018100;28;20045;-71
2022/01/28 04:23:36;;;;;;;13.57;2.05;;;;;;;;;;5029623;28;20456;-72
2022/01/28 04:26:01;;;;;;;14.93;1.98;;;;;;;;;;5020500;28;20030;-72
2022/01/28 04:28:26;;;;;;;15.25;2.03;;;;;;;;;;5026318;28;20033;-71
2022/01/28 04:30:52;;;;;;;8.48;1.67;;;;;;;;;;5037436;28;20033;-71
2022/01/28 04:33:17;;;;;;;12.35;1.73;;;;;;;;;;5026064;28;20033;-71
2022/01/28 04:35:46;;;;;;;19.33;2.20;;;;;;;;;;5036602;28;20040;-71
2022/01/28 04:38:34;;;;;;;15.90;2.25;;;;;;;;;;5029422;28;20030;-71
2022/01/28 04:41:10;;;;;;;12.80;1.95;;;;;;;;;;5028433;28;20029;-71
2022/01/28 04:44:01;;;;;;;15.32;2.45;;;;;;;;;;5019320;28;20502;-71
2022/01/28 04:49:00;;;;;;;13.38;1.90;;;;;;;;;;5022325;28;20034;-71
2022/01/28 05:02:16;;;;;;;17.40;2.28;;;;;;;;;;5018616;28;20041;-71
2022/01/28 05:04:50;;;;;;;11.10;1.85;;;;;;;;;;5033979;28;20064;-70
2022/01/28 05:28:26;;;;;;;13.25;1.80;;;;;;;;;;5036920;28;20342;-69
2022/01/28 05:30:51;;;;;;;9.73;1.63;;;;;;;;;;5032427;28;20498;-69
2022/01/28 05:33:17;;;;;;;11.30;1.95;;;;;;;;;;5041369;28;20033;-70
2022/01/28 05:35:42;;;;;;;9.45;1.88;;;;;;;;;;5049508;28;20064;-69
2022/01/28 05:38:07;;;;;;;9.20;1.65;;;;;;;;;;5034390;28;20033;-73
2022/01/28 05:40:33;;;;;;;8.52;1.55;;;;;;;;;;5029285;28;20033;-68
2022/01/28 05:42:58;;;;;;;6.88;1.77;;;;;;;;;;5028480;28;20132;-68
2022/01/28 05:45:24;;;;;;;18.95;2.55;;;;;;;;;;5045180;28;20098;-67
2022/01/28 05:47:49;;;;;;;12.70;2.05;;;;;;;;;;5025663;28;20375;-68
2022/01/28 05:50:15;;;;;;;10.93;2.08;;;;;;;;;;5015030;28;20041;-68
2022/01/28 05:52:40;;;;;;;13.13;2.42;;;;;;;;;;5017921;28;20403;-68
2022/01/28 05:55:09;;;;;;;7.55;1.38;;;;;;;;;;5039617;28;20025;-73
2022/01/28 05:57:34;;;;;;;13.52;1.83;;;;;;;;;;5027323;28;20076;-68
2022/01/28 06:00:00;;;;;;;15.07;1.70;;;;;;;;;;5017895;28;20037;-69
2022/01/28 06:02:25;;;;;;;18.30;2.00;;;;;;;;;;5022637;28;20740;-68
2022/01/28 06:04:51;;;;;;;8.43;2.13;;;;;;;;;;5031246;28;20035;-69
2022/01/28 06:07:19;;;;;;;12.55;2.30;;;;;;;;;;5034421;28;20474;-68
2022/01/28 06:09:44;;;;;;;11.45;2.22;;;;;;;;;;5033736;28;20080;-70
2022/01/28 06:12:10;;;;;;;9.93;2.20;;;;;;;;;;5009828;28;20383;-64
2022/01/28 06:14:38;;;;;;;9.07;1.92;;;;;;;;;;5016397;28;20033;-65
2022/01/28 06:17:04;;;;;;;11.27;1.70;;;;;;;;;;5028952;28;20103;-67
2022/01/28 06:19:29;;;;;;;14.77;1.73;;;;;;;;;;5030809;28;20112;-68
2022/01/28 06:21:55;;;;;;;9.57;1.95;;;;;;;;;;5030747;28;20364;-67
2022/01/28 06:24:20;;;;;;;13.80;1.98;;;;;;;;;;5031769;28;20466;-69
2022/01/28 06:26:47;;;;;;;13.38;2.17;;;;;;;;;;5051183;28;20032;-70
2022/01/28 06:29:13;;;;;;;13.45;1.52;;;;;;;;;;5037259;28;20033;-71
2022/01/28 06:31:41;;;;;;;14.23;1.83;;;;;;;;;;5031074;28;20494;-69
2022/01/28 06:34:06;;;;;;;17.35;2.53;;;;;;;;;;5043581;28;20025;-70
2022/01/28 06:36:32;;;;;;;11.55;2.00;;;;;;;;;;5050235;28;20056;-70
2022/01/28 06:38:57;;;;;;;15.10;2.10;;;;;;;;;;5036165;28;20033;-71
2022/01/28 06:41:23;;;;;;;23.13;2.85;;;;;;;;;;5030046;28;20475;-72
2022/01/28 06:43:48;;;;;;;7.45;1.70;;;;;;;;;;5031080;28;20092;-71
2022/01/28 06:46:13;;;;;;;15.88;2.17;;;;;;;;;;5032476;28;20022;-68
2022/01/28 06:48:39;;;;;;;11.90;2.20;;;;;;;;;;5030924;28;20042;-70
2022/01/28 06:51:04;;;;;;;10.82;2.13;;;;;;;;;;5039578;28;20036;-70
2022/01/28 06:53:30;;;;;;;9.20;1.88;;;;;;;;;;5049994;28;20073;-70
2022/01/28 06:55:55;;;;;;;17.27;2.10;;;;;;;;;;5049189;28;20157;-70
2022/01/28 06:58:20;;;;;;;20.42;2.30;;;;;;;;;;5050000;28;20040;-69
2022/01/28 07:00:46;;;;;;;21.50;2.42;;;;;;;;;;5040520;28;20501;-70
2022/01/28 07:03:14;;;;;;;7.82;1.65;;;;;;;;;;5039301;28;20044;-71
2022/01/28 07:05:40;;;;;;;15.85;2.13;;;;;;;;;;5043514;28;20486;-71
2022/01/28 07:08:06;;;;;;;13.30;2.50;;;;;;;;;;5041579;28;20037;-70
2022/01/28 07:10:32;;;;;;;14.55;2.30;;;;;;;;;;5052451;28;20040;-70
2022/01/28 07:12:59;;;;;;;13.93;1.88;;;;;;;;;;5053318;28;20065;-70
2022/01/28 07:15:25;;;;;;;12.32;1.95;;;;;;;;;;5038458;28;20501;-70
2022/01/28 07:17:53;;;;;;;14.13;2.22;;;;;;;;;;5054754;28;20033;-70
2022/01/28 07:20:19;;;;;;;6.70;1.40;;;;;;;;;;5052069;28;20024;-70
2022/01/28 07:22:44;;;;;;;12.32;1.95;;;;;;;;;;5037226;28;20543;-68
2022/01/28 07:25:10;;;;;;;8.35;1.90;;;;;;;;;;5032864;28;20124;-70
2022/01/28 07:27:35;;;;;;;12.35;2.25;;;;;;;;;;5033577;28;20403;-70
2022/01/28 07:30:01;;;;;;;13.10;1.88;;;;;;;;;;5050220;28;20037;-70
2022/01/28 07:32:26;;;;;;;15.57;2.70;;;;;;;;;;5052695;28;20025;-69
2022/01/28 07:34:52;;;;;;;9.27;1.98;;;;;;;;;;5051362;28;20082;-69
2022/01/28 07:37:17;;;;;;;17.73;2.40;;;;;;;;;;5040263;28;20025;-69
2022/01/28 07:39:43;;;;;;;10.70;1.65;;;;;;;;;;5026867;28;20400;-71
2022/01/28 07:42:08;;;;;;;13.73;2.38;;;;;;;;;;5027483;28;20395;-71
2022/01/28 07:44:34;;;;;;;18.10;3.00;;;;;;;;;;5021372;28;20539;-70
2022/01/28 07:46:59;;;;;;;14.07;2.22;;;;;;;;;;5020285;28;20121;-71
2022/01/28 07:49:24;;;;;;;8.52;2.58;;;;;;;;;;5027040;28;20410;-70
2022/01/28 07:51:50;;;;;;;12.10;2.22;;;;;;;;;;5040566;28;20041;-71
2022/01/28 07:54:15;;;;;;;9.80;2.10;;;;;;;;;;5013160;28;20036;-70
2022/01/28 07:56:42;;;;;;;9.50;2.35;;;;;;;;;;5024855;28;20136;-70
2022/01/28 07:59:09;;;;;;;10.13;1.80;;;;;;;;;;5036110;28;20038;-69
2022/01/28 08:01:35;;;;;;;10.38;1.60;;;;;;;;;;5015574;28;20217;-71
2022/01/28 08:04:00;;;;;;;17.90;2.70;;;;;;;;;;5031291;28;20382;-69
2022/01/28 08:06:26;;;;;;;13.88;2.35;;;;;;;;;;5035390;28;20442;-71
2022/01/28 08:08:52;;;;;;;16.65;2.10;;;;;;;;;;5040680;28;20033;-70
2022/01/28 08:11:18;;;;;;;12.45;2.13;;;;;;;;;;5048083;28;20430;-70
2022/01/28 08:13:43;;;;;;;9.30;1.73;;;;;;;;;;5040041;28;20037;-71
2022/01/28 08:16:08;;;;;;;18.42;2.45;;;;;;;;;;5032082;28;20502;-71
2022/01/28 08:18:34;;;;;;;15.20;2.53;;;;;;;;;;5035582;28;20021;-70
2022/01/28 08:20:59;;;;;;;12.70;2.65;;;;;;;;;;5046613;28;20056;-70
2022/01/28 08:23:25;;;;;;;9.85;1.70;;;;;;;;;;5052646;28;20025;-70
2022/01/28 08:25:53;;;;;;;12.23;2.95;;;;;;;;;;5053367;28;20356;-68
2022/01/28 08:28:19;;;;;;;10.43;1.88;;;;;;;;;;5044431;28;20044;-68
2022/01/28 08:30:47;;;;;;;15.98;2.20;;;;;;;;;;5033264;28;20029;-67
2022/01/28 08:33:13;;;;;;;16.20;2.20;;;;;;;;;;5039570;28;20087;-70
2022/01/28 08:35:39;;;;;;;13.07;2.08;;;;;;;;;;5052370;28;20037;-66
2022/01/28 08:38:24;;;;;;;19.38;2.67;;;;;;;;;;5041347;28;20459;-66
2022/01/28 08:40:53;;;;;;;15.10;2.88;;;;;;;;;;5044444;28;20040;-62
2022/01/28 08:43:20;;;;;;;18.90;2.30;;;;;;;;;;5050431;28;20508;-61
2022/01/28 08:45:46;;;;;;;8.27;1.85;;;;;;;;;;5053097;28;20040;-61
2022/01/28 08:48:11;;;;;;;12.27;2.35;;;;;;;;;;5045001;28;20395;-68
2022/01/28 08:50:36;;;;;;;13.32;2.10;;;;;;;;;;5042795;28;20021;-71
2022/01/28 08:53:02;;;;;;;12.95;2.50;;;;;;;;;;5031516;28;20068;-73
2022/01/28 08:55:28;;;;;;;12.52;2.35;;;;;;;;;;5034544;28;20034;-70
2022/01/28 08:57:54;;;;;;;15.63;1.95;;;;;;;;;;5032351;28;20498;-72
2022/01/28 09:00:22;;;;;;;14.02;2.67;;;;;;;;;;5039561;28;20037;-69
2022/01/28 09:02:47;;;;;;;12.90;2.95;;;;;;;;;;5051425;28;20046;-70
2022/01/28 09:05:13;;;;;;;19.83;3.45;;;;;;;;;;5052956;28;20029;-71
2022/01/28 09:07:39;;;;;;;12.63;2.60;;;;;;;;;;5049222;28;20561;-70
2022/01/28 09:10:11;;;;;;;7.70;2.28;;;;;;;;;;5032568;28;20399;-72
2022/01/28 09:12:59;;;;;;;14.50;2.70;;;;;;;;;;5033204;28;20096;-71
2022/01/28 09:15:25;;;;;;;12.85;2.60;;;;;;;;;;5046532;28;20363;-70
2022/01/28 09:17:50;;;;;;;14.00;2.53;;;;;;;;;;5034138;28;20033;-71
2022/01/28 09:20:16;;;;;;;12.85;2.38;;;;;;;;;;5043459;28;20039;-70
2022/01/28 09:22:41;;;;;;;13.80;2.20;;;;;;;;;;5033665;28;20056;-69
2022/01/28 09:25:07;;;;;;;16.00;2.25;;;;;;;;;;5032208;28;20132;-71
2022/01/28 09:27:33;;;;;;;15.98;2.67;;;;;;;;;;5030437;28;20036;-70
2022/01/28 09:29:58;;;;;;;13.52;2.80;;;;;;;;;;5032633;28;20175;-71
2022/01/28 09:32:24;;;;;;;14.27;3.08;;;;;;;;;;5043876;28;20025;-70
2022/01/28 09:34:49;;;;;;;19.83;2.53;;;;;;;;;;5052055;28;20044;-70
2022/01/28 09:37:15;;;;;;;15.60;2.42;;;;;;;;;;5032625;28;20365;-70
2022/01/28 09:39:45;;;;;;;11.32;2.85;;;;;;;;;;5011328;28;20099;-70
2022/01/28 09:42:15;;;;;;;12.70;2.78;;;;;;;;;;5033554;28;20028;-68
2022/01/28 09:44:42;;;;;;;13.18;2.38;;;;;;;;;;5037595;28;20795;-68
2022/01/28 09:47:10;;;;;;;12.23;2.50;;;;;;;;;;5035683;28;20032;-66
2022/01/28 09:49:37;;;;;;;22.65;3.05;;;;;;;;;;5037851;28;20052;-67
2022/01/28 09:52:03;;;;;;;14.65;2.47;;;;;;;;;;5031361;28;20553;-71
2022/01/28 09:54:29;;;;;;;17.83;2.60;;;;;;;;;;5030374;28;20033;-70
2022/01/28 09:56:55;;;;;;;14.35;2.38;;;;;;;;;;5035310;28;20109;-69
2022/01/28 09:59:20;;;;;;;11.93;2.30;;;;;;;;;;5034041;28;20211;-69
2022/01/28 10:01:50;;;;;;;18.10;2.42;;;;;;;;;;5047434;28;20043;-71
2022/01/28 10:04:18;;;;;;;17.73;2.58;;;;;;;;;;5044284;28;20139;-66
2022/01/28 10:06:44;;;;;;;12.70;2.08;;;;;;;;;;5025821;28;20038;-67
2022/01/28 10:09:12;;;;;;;12.25;2.67;;;;;;;;;;5013649;28;20076;-67
2022/01/28 10:11:40;;;;;;;13.93;2.33;;;;;;;;;;5024602;28;20037;-69
2022/01/28 10:14:12;;;;;;;20.30;2.78;;;;;;;;;;5015444;28;20404;-68
2022/01/28 10:16:38;;;;;;;15.13;2.63;;;;;;;;;;5037324;28;20049;-68
2022/01/28 10:19:05;;;;;;;12.63;1.92;;;;;;;;;;5051388;28;20037;-67
2022/01/28 10:21:43;;;;;;;14.93;2.90;;;;;;;;;;5038498;28;20029;-67
2022/01/28 10:24:26;;;;;;;13.43;2.28;;;;;;;;;;5031671;28;20052;-67
2022/01/28 10:27:07;;;;;;;11.45;2.60;;;;;;;;;;5031012;28;20028;-68
2022/01/28 10:29:34;;;;;;;;;;;;;;;;;;5030918;28;20033;-67
2022/01/28 10:32:02;;;;;;;16.45;2.60;;;;;;;;;;5051327;28;20005;-66
2022/01/28 10:34:31;;;;;;;17.33;2.50;;;;;;;;;;5049028;28;20025;-66
2022/01/28 10:37:22;;;;;;;9.07;1.52;;;;;;;;;;5029689;28;20101;-66
2022/01/28 10:39:52;;;;;;;;;;;;;;;;;;5029706;28;20037;-65
2022/01/28 10:42:39;;;;;;;9.95;2.42;;;;;;;;;;5037110;28;19991;-67
2022/01/28 10:45:12;;;;;;;15.68;2.30;;;;;;;;;;5045154;28;20104;-66
2022/01/28 10:47:48;;;;;;;12.95;2.47;;;;;;;;;;5054775;28;20055;-67
2022/01/28 10:50:19;;;;;;;12.25;2.85;;;;;;;;;;5042009;28;20060;-66
2022/01/28 10:52:45;;;;;;;14.10;3.25;;;;;;;;;;5034449;28;20629;-67
2022/01/28 10:55:19;;;;;;;15.07;2.85;;;;;;;;;;5040334;28;20481;-67
2022/01/28 10:58:02;;;;;;;16.40;2.50;;;;;;;;;;5033179;28;20155;-66
2022/01/28 11:00:29;;;;;;;13.82;2.17;;;;;;;;;;5035789;28;20494;-66
2022/01/28 11:02:58;;;;;;;14.90;2.83;;;;;;;;;;5052266;28;20044;-66
2022/01/28 11:05:24;;;;;;;14.90;2.58;;;;;;;;;;5037388;28;20049;-68
2022/01/28 11:07:50;;;;;;;11.52;2.47;;;;;;;;;;5053316;28;20036;-66
2022/01/28 11:10:16;;;;;;;16.52;2.63;;;;;;;;;;5035372;28;20395;-67
2022/01/28 11:12:41;;;;;;;13.60;2.35;;;;;;;;;;5032407;28;20030;-67
2022/01/28 11:15:07;;;;;;;18.85;2.78;;;;;;;;;;5030031;28;20375;-66
2022/01/28 11:17:36;;;;;;;17.88;3.15;;;;;;;;;;5014266;28;20472;-68
2022/01/28 11:20:01;;;;;;;13.93;2.60;;;;;;;;;;5037947;28;20132;-66
2022/01/28 11:22:58;;;;;;;19.65;3.15;;;;;;;;;;5053124;28;20449;-67
2022/01/28 11:25:44;;;;;;;12.57;2.00;;;;;;;;;;5055003;28;20271;-67
2022/01/28 11:28:12;;;;;;;19.73;2.80;;;;;;;;;;5044881;28;20037;-68
2022/01/28 11:30:45;;;;;;;12.98;2.40;;;;;;;;;;5051564;28;20383;-67
2022/01/28 11:33:11;;;;;;;16.45;2.97;;;;;;;;;;5040073;28;20064;-67
2022/01/28 11:35:49;;;;;;;13.95;2.10;;;;;;;;;;5041835;28;20403;-64
2022/01/28 11:38:24;;;;;;;16.13;2.80;;;;;;;;;;5034627;28;20033;-65
2022/01/28 11:40:52;;;;;;;11.85;2.70;;;;;;;;;;5053728;28;20033;-69
2022/01/28 11:43:29;;;;;;;9.75;1.95;;;;;;;;;;5045019;28;20036;-65
2022/01/28 11:46:37;;;;;;;18.77;2.20;;;;;;;;;;5031352;28;20116;-66
2022/01/28 11:49:04;;;;;;;14.18;2.30;;;;;;;;;;5035324;28;20029;-66
2022/01/28 11:51:32;;;;;;;12.93;2.83;;;;;;;;;;5033452;28;20060;-67
2022/01/28 11:54:00;;;;;;;10.93;2.50;;;;;;;;;;5048190;28;20376;-67
2022/01/28 11:56:27;;;;;;;14.73;2.28;;;;;;;;;;5033567;28;20030;-69
2022/01/28 11:58:52;;;;;;;13.95;2.95;;;;;;;;;;5039439;28;20040;-68
2022/01/28 12:01:38;;;;;;;15.75;2.22;;;;;;;;;;5034198;28;20399;-69
2022/01/28 12:04:25;;;;;;;13.32;2.53;;;;;;;;;;5000373;28;20081;-68
2022/01/28 12:06:54;;;;;;;11.10;2.47;;;;;;;;;;5046560;28;20021;-68
2022/01/28 12:09:23;;;;;;;10.70;2.40;;;;;;;;;;5044608;28;20463;-67
2022/01/28 12:11:49;;;;;;;15.15;2.33;;;;;;;;;;5035851;28;20029;-66
2022/01/28 12:14:14;;;;;;;8.82;2.35;;;;;;;;;;5039018;28;20029;-70
2022/01/28 12:16:43;;;;;;;14.85;2.30;;;;;;;;;;5048600;28;20106;-69
2022/01/28 12:19:17;;;;;;;32.53;4.32;;;;;;;;;;5035926;28;20033;-67
2022/01/28 12:22:03;;;;;;;11.85;2.05;;;;;;;;;;5041071;28;20093;-67
2022/01/28 12:24:31;;;;;;;14.55;2.40;;;;;;;;;;5031749;28;20120;-69
2022/01/28 12:27:06;;;;;;;14.50;3.03;;;;;;;;;;5032862;28;20033;-69
2022/01/28 12:29:33;;;;;;;18.10;2.58;;;;;;;;;;5012962;28;20029;-69
2022/01/28 12:32:00;;;;;;;14.65;2.95;;;;;;;;;;5042030;28;20037;-67
2022/01/28 12:34:26;;;;;;;11.07;2.85;;;;;;;;;;5032240;28;20041;-67
2022/01/28 12:36:52;;;;;;;13.13;2.67;;;;;;;;;;5020371;28;20033;-68
2022/01/28 12:39:31;;;;;;;14.35;3.08;;;;;;;;;;5033578;28;20414;-68
2022/01/28 12:42:11;;;;;;;16.33;2.72;;;;;;;;;;5039070;28;20500;-69
2022/01/28 12:44:38;;;;;;;17.48;2.95;;;;;;;;;;5043575;28;20045;-69
2022/01/28 12:47:09;;;;;;;17.63;2.70;;;;;;;;;;5033333;28;20037;-68
2022/01/28 12:50:04;;;;;;;;;;;;;;;;;;5032734;28;20028;-68
2022/01/28 12:52:33;;;;;;;12.35;2.22;;;;;;;;;;5013187;28;19924;-68
2022/01/28 12:54:59;;;;;;;13.45;2.58;;;;;;;;;;5033000;28;20034;-68
2022/01/28 12:57:24;;;;;;;12.25;2.58;;;;;;;;;;5045411;28;20041;-69
2022/01/28 12:59:50;;;;;;;15.38;2.85;;;;;;;;;;5051605;28;20930;-68
2022/01/28 13:02:17;;;;;;;16.23;2.80;;;;;;;;;;5050851;28;20041;-68
2022/01/28 13:05:12;;;;;;;13.75;2.65;;;;;;;;;;5050873;28;20091;-67
2022/01/28 13:10:25;;;;;;;16.27;2.50;;;;;;;;;;5052790;28;20052;-66
2022/01/28 13:12:51;;;;;;;17.85;2.95;;;;;;;;;;5032830;28;20505;-68
2022/01/28 13:15:17;;;;;;;13.88;2.50;;;;;;;;;;5032397;28;20030;-68
2022/01/28 13:17:57;;;;;;;14.40;2.47;;;;;;;;;;5027771;28;20418;-67
2022/01/28 13:20:24;;;;;;;14.05;2.30;;;;;;;;;;5027174;28;20044;-67
2022/01/28 13:22:52;;;;;;;13.52;2.50;;;;;;;;;;5040220;28;20059;-68
2022/01/28 13:25:22;;;;;;;12.90;2.53;;;;;;;;;;5038610;28;20033;-69
2022/01/28 13:27:52;;;;;;;12.05;2.50;;;;;;;;;;5031945;28;20316;-70
2022/01/28 13:30:19;;;;;;;15.95;2.85;;;;;;;;;;5046045;28;20044;-68
2022/01/28 13:32:50;;;;;;;14.95;2.45;;;;;;;;;;5050070;28;20106;-66
2022/01/28 13:35:15;;;;;;;;;;;;;;;;;;5052265;28;20108;-69
2022/01/28 13:37:47;;;;;;;13.23;2.65;;;;;;;;;;5041542;28;19952;-68
2022/01/28 13:40:37;;;;;;;15.73;2.60;;;;;;;;;;5032375;28;20364;-67
2022/01/28 13:43:13;;;;;;;12.95;2.45;;;;;;;;;;5032739;28;20458;-65
2022/01/28 13:45:42;;;;;;;17.05;2.30;;;;;;;;;;5047323;28;20483;-65
2022/01/28 13:48:22;;;;;;;13.00;2.15;;;;;;;;;;5039922;28;20040;-66
2022/01/28 13:50:52;;;;;;;14.02;2.58;;;;;;;;;;5031194;28;20041;-68
2022/01/28 13:56:02;;;;;;;17.85;2.55;;;;;;;;;;5051168;28;20036;-66
2022/01/28 13:58:29;;;;;;;16.10;2.58;;;;;;;;;;5043511;28;20080;-68
2022/01/28 14:00:55;;;;;;;18.38;2.40;;;;;;;;;;5030484;28;20030;-69
2022/01/28 14:03:22;;;;;;;10.02;2.05;;;;;;;;;;5031768;28;20061;-68
2022/01/28 14:06:00;;;;;;;16.95;2.50;;;;;;;;;;5045377;28;20083;-66
2022/01/28 14:08:51;;;;;;;13.68;2.72;;;;;;;;;;5051878;28;20083;-68
2022/01/28 14:11:20;;;;;;;19.25;2.58;;;;;;;;;;5034561;28;20033;-65
2022/01/28 14:14:44;;;;;;;7.15;1.90;;;;;;;;;;5033522;28;20108;-66
2022/01/28 14:17:10;;;;;;;18.35;3.00;;;;;;;;;;5030029;28;20054;-67
2022/01/28 14:19:40;;;;;;;13.20;2.70;;;;;;;;;;5030853;28;20090;-67
2022/01/28 14:22:08;;;;;;;12.00;2.25;;;;;;;;;;5031704;28;20486;-67
2022/01/28 14:24:36;;;;;;;16.35;2.70;;;;;;;;;;5031049;28;20037;-67
2022/01/28 14:29:55;;;;;;;15.18;2.30;;;;;;;;;;5041967;28;20059;-68
2022/01/28 14:32:24;;;;;;;6.93;1.85;;;;;;;;;;5050938;28;20506;-67
2022/01/28 14:34:52;;;;;;;12.88;2.30;;;;;;;;;;5050314;28;20028;-67
2022/01/28 14:37:18;;;;;;;12.55;2.17;;;;;;;;;;5050306;28;20029;-67
2022/01/28 14:39:47;;;;;;;13.65;2.58;;;;;;;;;;5050738;28;20127;-67
2022/01/28 14:42:14;;;;;;;11.18;2.40;;;;;;;;;;5048348;28;20507;-67
2022/01/28 14:44:47;;;;;;;16.02;2.60;;;;;;;;;;5050307;28;20037;-67
2022/01/28 14:47:14;;;;;;;11.10;2.42;;;;;;;;;;5047166;28;20033;-67
2022/01/28 14:49:40;;;;;;;11.20;2.53;;;;;;;;;;5036313;28;20083;-65
2022/01/28 14:52:15;;;;;;;9.48;2.00;;;;;;;;;;5035487;28;20120;-64
2022/01/28 14:54:40;;;;;;;11.40;2.30;;;;;;;;;;5046646;28;20040;-64
2022/01/28 14:57:11;;;;;;;10.27;2.67;;;;;;;;;;5034285;28;20034;-65
2022/01/28 14:59:39;;;;;;;11.43;2.75;;;;;;;;;;5028682;28;20068;-63
2022/01/28 15:02:11;;;;;;;12.95;3.35;;;;;;;;;;5028976;28;20053;-68
2022/01/28 15:04:36;;;;;;;10.20;2.63;;;;;;;;;;5034333;28;20121;-67
2022/01/28 15:07:02;;;;;;;10.65;3.05;;;;;;;;;;5016209;28;20149;-67
2022/01/28 15:09:27;;;;;;;10.13;2.83;;;;;;;;;;5021809;28;20064;-65
2022/01/28 15:11:53;;;;;;;15.65;3.40;;;;;;;;;;5023821;28;20621;-66
2022/01/28 15:14:21;;;;;;;15.27;3.38;;;;;;;;;;5027064;28;20040;-66
2022/01/28 15:16:47;;;;;;;8.27;2.50;;;;;;;;;;5011814;28;20045;-66
2022/01/28 15:19:13;;;;;;;8.32;2.50;;;;;;;;;;5033508;28;20060;-65
2022/01/28 15:21:41;;;;;;;10.88;2.85;;;;;;;;;;5048955;28;20029;-68
2022/01/28 15:24:06;;;;;;;16.10;2.95;;;;;;;;;;5049482;28;20413;-66
2022/01/28 15:26:32;;;;;;;12.88;3.10;;;;;;;;;;5051032;28;20025;-65
2022/01/28 15:29:01;;;;;;;11.88;2.85;;;;;;;;;;5037505;28;20033;-67
2022/01/28 15:37:05;;;;;;;11.48;2.60;;;;;;;;;;5030906;28;20036;-65
2022/01/28 15:39:35;;;;;;;13.18;2.83;;;;;;;;;;5033712;28;20034;-65
2022/01/28 15:42:06;;;;;;;15.95;3.30;;;;;;;;;;5034217;28;20029;-67
2022/01/28 15:44:32;;;;;;;10.65;3.00;;;;;;;;;;5034806;28;20083;-65
2022/01/28 15:46:58;;;;;;;8.98;2.65;;;;;;;;;;5033219;28;20040;-67
2022/01/28 15:49:23;;;;;;;15.00;3.40;;;;;;;;;;5035737;28;20360;-65
2022/01/28 15:51:49;;;;;;;11.35;2.58;;;;;;;;;;5031574;28;20043;-65
2022/01/28 15:54:16;;;;;;;16.58;3.25;;;;;;;;;;5019760;28;20029;-65
2022/01/28 15:56:44;;;;;;;12.68;2.58;;;;;;;;;;5033349;28;20494;-65
2022/01/28 15:59:10;;;;;;;12.63;2.85;;;;;;;;;;5024967;28;20029;-65
2022/01/28 16:01:36;;;;;;;16.05;3.05;;;;;;;;;;5034024;28;20040;-67
2022/01/28 16:04:01;;;;;;;12.30;3.00;;;;;;;;;;5032416;28;20037;-65
2022/01/28 16:06:27;;;;;;;16.10;3.03;;;;;;;;;;5034413;28;20056;-66
2022/01/28 16:08:53;;;;;;;12.77;2.90;;;;;;;;;;5032788;28;20044;-65
2022/01/28 16:11:20;;;;;;;10.35;2.90;;;;;;;;;;5029079;28;20120;-64
2022/01/28 16:18:58;;;;;;;12.88;3.60;;;;;;;;;;5026088;28;20060;-66
2022/01/28 16:21:25;;;;;;;11.55;3.70;;;;;;;;;;5014142;28;20025;-66
2022/01/28 16:23:50;;;;;;;12.80;4.55;;;;;;;;;;5032730;28;20163;-67
2022/01/28 16:26:16;;;;;;;10.40;3.28;;;;;;;;;;5037035;28;20108;-67
2022/01/28 16:28:41;;;;;;;13.15;5.03;;;;;;;;;;5032589;28;20124;-65
2022/01/28 16:31:06;;;;;;;11.93;3.50;;;;;;;;;;5030781;28;20453;-65